Time;durP1;ratioP1;P1;durP2;ratioP2;P2;SDS_P1;SDS_P2;PMS_P1;PMS_P2;Temp;Humidity;BMP_temperature;BMP_pressure;BME280_temperature;BME280_humidity;BME280_pressure;Samples;Min_cycle;Max_cycle;Signal;HPM_P1;HPM_P2
2021/11/06 00:01:53;;;;;;;43.63;18.67;;;;;;;12.77;63.44;95958.69;5047886;28;20028;-78
2021/11/06 00:04:18;;;;;;;32.58;17.15;;;;;;;12.71;63.63;95961.06;5048471;28;20032;-80
2021/11/06 00:06:44;;;;;;;44.58;16.50;;;;;;;12.71;63.83;95961.06;5047813;28;20021;-78
2021/11/06 00:09:11;;;;;;;31.73;16.48;;;;;;;12.64;64.09;95960.09;5047071;28;20060;-80
2021/11/06 00:11:36;;;;;;;35.88;16.40;;;;;;;12.61;64.29;95955.06;5046423;28;20033;-77
2021/11/06 00:14:01;;;;;;;43.35;18.73;;;;;;;12.56;63.92;95969.06;5030120;28;20377;-77
2021/11/06 00:16:27;;;;;;;42.72;18.92;;;;;;;12.51;64.03;95957.16;5047824;28;20025;-76
2021/11/06 00:18:52;;;;;;;44.70;20.42;;;;;;;12.44;64.47;95965.94;5046331;28;20021;-77
2021/11/06 00:21:18;;;;;;;37.35;17.65;;;;;;;12.43;64.35;95974.19;5030028;28;20036;-78
2021/11/06 00:23:43;;;;;;;42.63;18.70;;;;;;;12.40;64.33;95974.53;5045952;28;20102;-76
2021/11/06 00:26:08;;;;;;;48.20;18.80;;;;;;;12.35;64.36;95980.41;5048241;28;20048;-77
2021/11/06 00:28:34;;;;;;;43.97;17.52;;;;;;;12.23;64.39;95983.50;5045635;28;20060;-81
2021/11/06 00:30:59;;;;;;;43.60;17.13;;;;;;;12.22;63.42;95987.19;5045078;28;20032;-76
2021/11/06 00:33:25;;;;;;;42.53;15.23;;;;;;;12.14;63.31;95986.41;5046418;28;20029;-77
2021/11/06 00:35:50;;;;;;;30.88;13.43;;;;;;;12.08;62.88;95993.28;5047721;28;20059;-76
2021/11/06 00:38:16;;;;;;;32.40;14.07;;;;;;;11.99;63.27;95992.44;5047331;28;20136;-75
2021/11/06 00:40:41;;;;;;;42.50;15.95;;;;;;;11.96;64.17;95995.50;5045489;28;20017;-75
2021/11/06 00:43:07;;;;;;;40.42;15.77;;;;;;;11.86;64.81;95990.28;5048001;28;20033;-77
2021/11/06 00:45:32;;;;;;;40.92;17.30;;;;;;;11.81;64.90;95992.66;5045670;28;20033;-80
2021/11/06 00:47:57;;;;;;;39.63;17.58;;;;;;;11.77;65.42;95989.47;5046505;28;20232;-76
2021/11/06 00:50:23;;;;;;;35.88;16.42;;;;;;;11.76;65.38;95990.47;5045398;28;20025;-77
2021/11/06 00:52:49;;;;;;;40.00;16.98;;;;;;;11.72;65.36;95995.34;5029625;28;20033;-77
2021/11/06 00:55:15;;;;;;;47.45;18.70;;;;;;;11.71;65.79;95991.00;5046011;28;20699;-76
2021/11/06 00:57:40;;;;;;;44.03;18.27;;;;;;;11.68;65.93;95991.34;5046780;28;20057;-80
2021/11/06 01:00:07;;;;;;;41.30;18.15;;;;;;;11.64;66.01;95986.47;5045877;28;20079;-78
2021/11/06 01:02:33;;;;;;;50.08;20.60;;;;;;;11.64;66.25;95992.66;5027525;28;20029;-77
2021/11/06 01:04:58;;;;;;;43.33;18.58;;;;;;;11.75;65.25;95996.88;5046205;28;20036;-75
2021/11/06 01:07:24;;;;;;;46.70;20.85;;;;;;;11.72;65.76;96006.09;5046275;28;20021;-76
2021/11/06 01:09:49;;;;;;;43.15;20.58;;;;;;;11.69;66.43;96019.88;5047215;28;20083;-77
2021/11/06 01:12:15;;;;;;;48.97;19.80;;;;;;;11.68;66.56;96002.09;5046586;28;20036;-75
2021/11/06 01:14:40;;;;;;;42.53;19.20;;;;;;;11.66;66.44;96005.94;5046601;28;20033;-75
2021/11/06 01:17:05;;;;;;;45.60;19.05;;;;;;;11.65;66.26;96015.84;5045808;28;20025;-76
2021/11/06 01:19:31;;;;;;;45.60;20.20;;;;;;;11.63;66.09;96023.25;5046278;28;20020;-75
2021/11/06 01:21:56;;;;;;;44.92;16.45;;;;;;;11.56;65.15;96016.88;5047269;28;20017;-76
2021/11/06 01:24:22;;;;;;;39.13;18.58;;;;;;;11.47;65.11;96029.47;5046346;28;20037;-77
2021/11/06 01:26:47;;;;;;;42.08;18.25;;;;;;;11.47;65.08;96029.47;5029001;28;20102;-76
2021/11/06 01:29:13;;;;;;;42.13;15.43;;;;;;;11.43;65.72;96020.06;5046452;28;20017;-76
2021/11/06 01:31:38;;;;;;;34.35;15.07;;;;;;;11.40;66.14;96023.09;5046557;28;20029;-75
2021/11/06 01:34:04;;;;;;;37.30;13.02;;;;;;;11.44;65.51;96030.66;5045864;28;20021;-80
2021/11/06 01:36:31;;;;;;;34.15;12.30;;;;;;;11.39;65.46;96038.34;5045035;28;20403;-74
2021/11/06 01:38:56;;;;;;;29.33;12.00;;;;;;;11.33;65.67;96029.09;5045607;28;20063;-75
2021/11/06 01:41:21;;;;;;;25.08;11.82;;;;;;;11.46;64.60;96028.59;5044867;28;20029;-75
2021/11/06 01:43:48;;;;;;;31.33;12.50;;;;;;;11.40;65.29;96023.91;5045286;28;20024;-74
2021/11/06 01:46:13;;;;;;;23.63;11.15;;;;;;;11.39;65.23;96027.63;5044411;28;20029;-74
2021/11/06 01:48:39;;;;;;;25.90;9.90;;;;;;;11.41;65.23;96028.28;5045318;28;20514;-75
2021/11/06 01:51:05;;;;;;;29.27;11.18;;;;;;;11.36;65.81;96033.31;5046132;28;20388;-74
2021/11/06 01:53:30;;;;;;;23.35;10.10;;;;;;;11.29;66.13;96022.41;5045035;28;20033;-74
2021/11/06 01:55:56;;;;;;;27.20;11.40;;;;;;;11.29;66.08;96026.94;5046389;28;20025;-76
2021/11/06 01:58:22;;;;;;;27.80;11.13;;;;;;;11.31;66.09;96028.47;5045907;28;20028;-74
2021/11/06 02:00:48;;;;;;;31.70;12.32;;;;;;;11.31;66.36;96031.16;5044955;28;20077;-75
2021/11/06 02:03:14;;;;;;;27.98;13.95;;;;;;;11.24;66.40;96025.59;5045552;28;20028;-75
2021/11/06 02:05:43;;;;;;;30.50;12.65;;;;;;;11.30;65.46;96029.44;5046458;28;20036;-75
2021/11/06 02:08:09;;;;;;;27.60;11.13;;;;;;;11.25;65.95;96021.88;5045987;28;20025;-76
2021/11/06 02:10:34;;;;;;;27.65;10.77;;;;;;;11.25;66.37;96029.94;5046363;28;20423;-75
2021/11/06 02:13:00;;;;;;;29.90;11.50;;;;;;;11.22;66.53;96024.91;5029783;28;20040;-74
2021/11/06 02:15:25;;;;;;;24.10;11.25;;;;;;;11.28;66.18;96028.78;5050108;28;20032;-74
2021/11/06 02:17:51;;;;;;;24.48;10.70;;;;;;;11.31;65.80;96024.91;5050143;28;20430;-75
2021/11/06 02:20:16;;;;;;;32.22;12.18;;;;;;;11.31;66.15;96046.41;5049819;28;20040;-75
2021/11/06 02:22:42;;;;;;;27.52;11.75;;;;;;;11.33;66.40;96041.72;5050352;28;20025;-75
2021/11/06 02:25:08;;;;;;;28.38;11.52;;;;;;;11.29;66.59;96046.56;5049221;28;20060;-73
2021/11/06 02:27:34;;;;;;;24.10;11.38;;;;;;;11.21;67.10;96059.97;5032789;28;20425;-74
2021/11/06 02:30:00;;;;;;;27.35;11.32;;;;;;;11.14;66.68;96059.78;5048043;28;20562;-75
2021/11/06 02:32:25;;;;;;;22.88;10.32;;;;;;;11.14;66.73;96065.16;5050347;28;20025;-74
2021/11/06 02:34:51;;;;;;;32.53;11.80;;;;;;;11.13;66.56;96068.88;5049652;28;20407;-75
2021/11/06 02:37:18;;;;;;;25.10;11.57;;;;;;;11.15;66.16;96068.69;5048269;28;20589;-75
2021/11/06 02:39:43;;;;;;;24.92;10.65;;;;;;;11.12;66.43;96064.50;5048845;28;20029;-76
2021/11/06 02:42:09;;;;;;;28.90;10.52;;;;;;;11.09;66.59;96073.72;5047754;28;20048;-75
2021/11/06 02:44:34;;;;;;;26.85;10.88;;;;;;;11.06;67.28;96075.91;5048973;28;20067;-75
2021/11/06 02:47:00;;;;;;;24.52;10.60;;;;;;;11.06;67.04;96062.50;5048832;28;20399;-74
2021/11/06 02:49:26;;;;;;;24.05;9.98;;;;;;;11.05;66.81;96052.75;5048727;28;20036;-74
2021/11/06 02:51:52;;;;;;;27.55;10.65;;;;;;;11.08;66.80;96053.25;5049118;28;20036;-75
2021/11/06 02:54:17;;;;;;;28.08;12.02;;;;;;;11.11;67.30;96060.13;5048081;28;20028;-76
2021/11/06 02:56:43;;;;;;;27.65;12.80;;;;;;;11.18;66.88;96071.06;5049633;28;20025;-74
2021/11/06 02:59:08;;;;;;;32.63;15.13;;;;;;;11.20;67.19;96080.66;5048935;28;20466;-76
2021/11/06 03:01:34;;;;;;;32.72;14.00;;;;;;;11.13;67.60;96079.59;5049790;28;20029;-74
2021/11/06 03:03:59;;;;;;;25.83;12.88;;;;;;;11.06;68.01;96084.78;5048611;28;20048;-74
2021/11/06 03:06:25;;;;;;;31.70;14.15;;;;;;;11.06;68.03;96094.69;5050136;28;20462;-74
2021/11/06 03:08:50;;;;;;;30.50;12.55;;;;;;;11.07;68.14;96102.59;5048847;28;20491;-73
2021/11/06 03:11:16;;;;;;;36.03;13.75;;;;;;;11.04;68.48;96099.38;5031235;28;20403;-74
2021/11/06 03:13:42;;;;;;;29.33;12.70;;;;;;;11.04;68.48;96091.34;5049594;28;20463;-74
2021/11/06 03:16:08;;;;;;;30.10;12.65;;;;;;;11.09;68.19;96094.38;5030950;28;20058;-74
2021/11/06 03:18:34;;;;;;;27.25;11.80;;;;;;;11.05;67.92;96096.53;5048111;28;20071;-74
2021/11/06 03:20:59;;;;;;;31.75;11.32;;;;;;;11.05;67.22;96104.59;5048394;28;20029;-74
2021/11/06 03:23:27;;;;;;;24.15;10.98;;;;;;;11.05;67.30;96111.78;5049328;28;20025;-75
2021/11/06 03:25:54;;;;;;;26.55;11.45;;;;;;;11.02;67.45;96098.69;5047708;28;20048;-74
2021/11/06 03:28:19;;;;;;;28.67;11.25;;;;;;;10.92;67.85;96097.00;5043551;28;20118;-74
2021/11/06 03:30:45;;;;;;;24.48;11.00;;;;;;;10.97;67.97;96104.56;5039647;28;20025;-75
2021/11/06 03:33:10;;;;;;;27.33;10.45;;;;;;;11.00;68.02;96106.91;5038651;28;20095;-73
2021/11/06 03:35:35;;;;;;;26.73;11.40;;;;;;;10.98;68.03;96100.88;5037837;28;20021;-74
2021/11/06 03:38:01;;;;;;;28.05;10.98;;;;;;;10.97;68.03;96102.72;5036751;28;20017;-74
2021/11/06 03:40:27;;;;;;;26.10;9.95;;;;;;;11.05;67.13;96096.53;5038438;28;20388;-75
2021/11/06 03:42:52;;;;;;;25.80;9.70;;;;;;;11.10;67.38;96104.94;5034229;28;20053;-75
2021/11/06 03:45:18;;;;;;;26.27;9.15;;;;;;;11.21;67.14;96101.09;5036694;28;20472;-76
2021/11/06 03:47:43;;;;;;;23.85;9.35;;;;;;;11.25;67.55;96109.69;5036832;28;20504;-74
2021/11/06 03:50:09;;;;;;;25.70;9.18;;;;;;;11.25;68.29;96123.09;5036146;28;20135;-75
2021/11/06 03:52:35;;;;;;;21.42;9.50;;;;;;;11.32;67.58;96134.00;5037554;28;20039;-74
2021/11/06 03:55:01;;;;;;;25.00;9.95;;;;;;;11.32;68.38;96134.00;5037913;28;20021;-74
2021/11/06 03:57:26;;;;;;;24.33;10.68;;;;;;;11.33;68.86;96127.66;5037922;28;20493;-75
2021/11/06 03:59:51;;;;;;;22.50;11.45;;;;;;;11.34;69.53;96135.53;5034961;28;20439;-74
2021/11/06 04:02:17;;;;;;;24.73;10.82;;;;;;;11.38;69.54;96125.31;5036268;28;20411;-75
2021/11/06 04:04:42;;;;;;;22.33;10.65;;;;;;;11.34;70.06;96123.94;5033258;28;20079;-74
2021/11/06 04:07:08;;;;;;;21.58;10.65;;;;;;;11.35;70.38;96118.41;5039936;28;20044;-75
2021/11/06 04:09:33;;;;;;;24.05;11.23;;;;;;;11.31;71.23;96113.53;5046865;28;20044;-73
2021/11/06 04:11:59;;;;;;;20.25;11.63;;;;;;;11.29;71.93;96112.84;5045997;28;20033;-73
2021/11/06 04:14:24;;;;;;;22.42;13.05;;;;;;;11.36;71.98;96113.91;5047223;28;20025;-73
2021/11/06 04:16:49;;;;;;;19.70;12.63;;;;;;;11.33;72.38;96098.09;5045613;28;20087;-74
2021/11/06 04:19:15;;;;;;;25.15;12.98;;;;;;;11.35;72.48;96096.06;5046779;28;20059;-74
2021/11/06 04:21:40;;;;;;;27.63;14.10;;;;;;;11.36;72.17;96095.94;5045792;28;20067;-73
2021/11/06 04:24:06;;;;;;;23.27;12.73;;;;;;;11.40;71.99;96109.84;5046381;28;20051;-74
2021/11/06 04:26:32;;;;;;;26.70;13.50;;;;;;;11.41;73.13;96116.06;5044438;28;20057;-74
2021/11/06 04:28:57;;;;;;;23.85;13.15;;;;;;;11.43;73.60;96116.75;5047062;28;20032;-74
2021/11/06 04:31:23;;;;;;;24.52;13.25;;;;;;;11.44;73.73;96110.38;5045851;28;20376;-73
2021/11/06 04:33:48;;;;;;;26.45;13.32;;;;;;;11.41;74.29;96116.06;5038433;28;20037;-73
2021/11/06 04:36:15;;;;;;;22.42;12.27;;;;;;;11.42;73.42;96123.97;5039893;28;20051;-73
2021/11/06 04:38:40;;;;;;;25.40;12.63;;;;;;;11.39;73.37;96140.41;5046247;28;20043;-74
2021/11/06 04:41:06;;;;;;;26.85;13.45;;;;;;;11.30;74.04;96146.78;5041776;28;20025;-75
2021/11/06 04:43:31;;;;;;;22.10;13.35;;;;;;;11.24;74.98;96154.47;5038864;28;20028;-74
2021/11/06 04:45:57;;;;;;;26.30;12.95;;;;;;;11.30;75.60;96154.84;5045782;28;20021;-74
2021/11/06 04:48:22;;;;;;;27.98;13.52;;;;;;;11.26;76.47;96157.00;5033590;28;20029;-74
2021/11/06 04:50:48;;;;;;;31.00;13.98;;;;;;;11.27;76.24;96158.66;5037767;28;20025;-73
2021/11/06 04:53:13;;;;;;;31.83;14.50;;;;;;;11.30;76.36;96166.41;5036701;28;20060;-74
2021/11/06 04:55:38;;;;;;;26.38;13.07;;;;;;;11.40;75.20;96162.75;5036682;28;20029;-74
2021/11/06 04:58:04;;;;;;;24.60;12.85;;;;;;;11.39;75.30;96159.22;5039514;28;20017;-74
2021/11/06 05:00:29;;;;;;;28.58;13.10;;;;;;;11.47;74.40;96169.97;5042696;28;20025;-74
2021/11/06 05:02:55;;;;;;;25.25;13.20;;;;;;;11.52;74.30;96179.38;5045826;28;20025;-74
2021/11/06 05:05:22;;;;;;;23.80;12.85;;;;;;;11.55;74.33;96187.13;5044681;28;20025;-74
2021/11/06 05:07:48;;;;;;;30.15;13.80;;;;;;;11.56;73.93;96172.69;5044757;28;20025;-74
2021/11/06 05:10:13;;;;;;;35.45;14.30;;;;;;;11.64;73.49;96175.38;5045963;28;20024;-73
2021/11/06 05:12:39;;;;;;;22.30;12.85;;;;;;;11.67;73.67;96180.41;5045264;28;20051;-74
2021/11/06 05:15:05;;;;;;;26.08;12.48;;;;;;;11.66;74.64;96185.94;5044431;28;20028;-75
2021/11/06 05:17:31;;;;;;;19.45;11.68;;;;;;;11.66;74.66;96191.31;5042799;28;20075;-76
2021/11/06 05:19:58;;;;;;;26.98;13.60;;;;;;;11.62;75.17;96193.53;5044988;28;20032;-76
2021/11/06 05:22:23;;;;;;;20.17;13.80;;;;;;;11.65;74.81;96187.81;5036179;28;20553;-76
2021/11/06 05:24:49;;;;;;;24.23;13.15;;;;;;;11.71;74.87;96181.78;5042840;28;20041;-76
2021/11/06 05:27:14;;;;;;;23.15;13.20;;;;;;;11.74;74.65;96181.44;5037513;28;20026;-77
2021/11/06 05:29:40;;;;;;;23.13;12.20;;;;;;;11.78;75.42;96192.72;5039156;28;20029;-74
2021/11/06 05:32:06;;;;;;;24.85;13.77;;;;;;;11.81;75.71;96199.59;5040414;28;20059;-77
2021/11/06 05:34:31;;;;;;;21.52;13.18;;;;;;;11.80;76.12;96195.22;5027388;28;20529;-77
2021/11/06 05:36:57;;;;;;;28.75;14.40;;;;;;;11.83;75.91;96197.59;5039052;28;20036;-74
2021/11/06 05:39:22;;;;;;;22.52;12.35;;;;;;;11.93;75.46;96211.69;5038877;28;20455;-74
2021/11/06 05:41:48;;;;;;;26.25;14.20;;;;;;;11.96;75.02;96211.34;5027870;28;20025;-74
2021/11/06 05:44:13;;;;;;;28.33;14.15;;;;;;;11.99;74.67;96216.41;5033842;28;20032;-73
2021/11/06 05:46:39;;;;;;;25.92;14.40;;;;;;;11.99;73.51;96221.78;5036409;28;20035;-75
2021/11/06 05:49:04;;;;;;;27.25;14.00;;;;;;;12.05;73.33;96224.81;5040876;28;20511;-76
2021/11/06 05:51:30;;;;;;;26.75;13.38;;;;;;;12.15;73.32;96232.75;5043309;28;20029;-77
2021/11/06 05:53:55;;;;;;;28.65;13.95;;;;;;;12.23;72.96;96233.63;5040002;28;20025;-75
2021/11/06 05:56:21;;;;;;;22.60;11.80;;;;;;;12.24;73.39;96235.28;5024688;28;20029;-75
2021/11/06 05:58:46;;;;;;;25.77;12.65;;;;;;;12.30;73.72;96241.00;5038026;28;20501;-76
2021/11/06 06:01:12;;;;;;;19.05;11.57;;;;;;;12.31;73.82;96245.38;5016308;28;20044;-75
2021/11/06 06:03:37;;;;;;;27.02;12.18;;;;;;;12.31;74.05;96240.00;5040574;28;20340;-76
2021/11/06 06:06:03;;;;;;;21.00;10.73;;;;;;;12.36;74.74;96243.84;5023222;28;20033;-76
2021/11/06 06:08:29;;;;;;;22.88;11.63;;;;;;;12.38;75.33;96248.22;5025940;28;20033;-75
2021/11/06 06:10:54;;;;;;;24.13;11.55;;;;;;;12.35;75.29;96258.31;5044854;28;20484;-76
2021/11/06 06:13:20;;;;;;;20.98;11.35;;;;;;;12.36;75.37;96265.38;5042139;28;20064;-74
2021/11/06 06:15:45;;;;;;;18.67;11.02;;;;;;;12.37;75.67;96268.91;5033877;28;20025;-76
2021/11/06 06:18:10;;;;;;;20.80;10.70;;;;;;;12.39;75.83;96280.34;5038120;28;20041;-75
2021/11/06 06:20:36;;;;;;;20.48;11.52;;;;;;;12.35;75.83;96276.28;5041584;28;20066;-76
2021/11/06 06:23:01;;;;;;;22.73;11.48;;;;;;;12.40;75.49;96289.25;5042655;28;20067;-78
2021/11/06 06:25:27;;;;;;;18.98;11.23;;;;;;;12.46;75.43;96284.03;5042711;28;20059;-77
2021/11/06 06:27:52;;;;;;;17.33;10.43;;;;;;;12.52;75.14;96287.91;5026316;28;20051;-76
2021/11/06 06:30:18;;;;;;;15.90;10.57;;;;;;;12.48;75.24;96289.25;5042770;28;20025;-78
2021/11/06 06:32:44;;;;;;;20.42;11.18;;;;;;;12.50;75.40;96287.22;5040628;28;20051;-77
2021/11/06 06:35:10;;;;;;;17.55;10.25;;;;;;;12.51;75.21;96299.66;5044368;28;20464;-76
2021/11/06 06:37:36;;;;;;;18.50;9.60;;;;;;;12.53;75.28;96291.44;5021795;28;20072;-75
2021/11/06 06:40:01;;;;;;;14.52;9.27;;;;;;;12.52;75.33;96292.44;5040279;28;20021;-78
2021/11/06 06:42:27;;;;;;;16.77;9.73;;;;;;;12.48;75.74;96295.47;5040812;28;20075;-77
2021/11/06 06:44:52;;;;;;;14.70;9.35;;;;;;;12.49;75.81;96297.16;5032718;28;20029;-77
2021/11/06 06:47:18;;;;;;;15.57;8.98;;;;;;;12.57;75.25;96284.72;5037367;28;20048;-76
2021/11/06 06:49:45;;;;;;;15.25;8.90;;;;;;;12.54;75.66;96293.13;5039098;28;20029;-77
2021/11/06 06:52:10;;;;;;;17.88;9.60;;;;;;;12.55;75.36;96298.34;5037082;28;20443;-75
2021/11/06 06:54:35;;;;;;;14.68;8.57;;;;;;;12.61;75.12;96311.13;5042459;28;20495;-78
2021/11/06 06:57:01;;;;;;;17.27;9.60;;;;;;;12.63;74.97;96310.09;5036982;28;20662;-74
2021/11/06 06:59:26;;;;;;;12.38;8.25;;;;;;;12.67;74.92;96304.22;5036855;28;20570;-75
2021/11/06 07:01:52;;;;;;;14.30;9.20;;;;;;;12.68;75.18;96305.91;5040758;28;20025;-76
2021/11/06 07:04:17;;;;;;;13.48;8.65;;;;;;;12.79;74.43;96314.63;5047327;28;20017;-75
2021/11/06 07:06:43;;;;;;;15.13;8.48;;;;;;;12.81;74.52;96309.94;5046946;28;20106;-75
2021/11/06 07:09:09;;;;;;;15.88;9.35;;;;;;;12.88;74.20;96302.84;5030384;28;20033;-75
2021/11/06 07:11:34;;;;;;;13.88;7.85;;;;;;;12.92;74.11;96309.59;5046179;28;20384;-74
2021/11/06 07:13:59;;;;;;;14.10;8.52;;;;;;;13.00;73.43;96302.50;5044761;28;20103;-75
2021/11/06 07:16:25;;;;;;;13.88;9.07;;;;;;;13.04;73.89;96311.94;5047284;28;20106;-74
2021/11/06 07:18:53;;;;;;;14.20;8.27;;;;;;;13.15;73.36;96306.19;5046944;28;20462;-76
2021/11/06 07:21:18;;;;;;;13.68;8.40;;;;;;;13.23;72.84;96313.41;5047669;28;20407;-76
2021/11/06 07:23:44;;;;;;;15.60;8.70;;;;;;;13.27;72.85;96316.59;5039099;28;20499;-77
2021/11/06 07:26:10;;;;;;;14.45;8.95;;;;;;;13.34;72.54;96323.81;5025436;28;20059;-76
2021/11/06 07:28:35;;;;;;;13.90;8.00;;;;;;;13.46;72.39;96324.28;5028146;28;20035;-78
2021/11/06 07:31:01;;;;;;;15.00;8.02;;;;;;;13.46;72.18;96316.19;5038791;28;20033;-76
2021/11/06 07:33:26;;;;;;;13.50;8.10;;;;;;;13.59;71.73;96320.22;5027783;28;20122;-73
2021/11/06 07:35:55;;;;;;;13.48;7.50;;;;;;;13.64;71.08;96320.53;5026676;28;20136;-75
2021/11/06 07:38:20;;;;;;;13.73;8.27;;;;;;;13.68;71.13;96327.28;5026609;28;20040;-76
2021/11/06 07:40:46;;;;;;;12.20;7.22;;;;;;;13.72;71.04;96334.00;5027506;28;20029;-78
2021/11/06 07:43:11;;;;;;;11.05;7.00;;;;;;;13.75;70.75;96326.56;5010325;28;20499;-75
2021/11/06 07:45:37;;;;;;;14.98;8.07;;;;;;;13.81;70.76;96333.97;5027425;28;20450;-76
2021/11/06 07:48:03;;;;;;;13.57;7.82;;;;;;;13.90;70.31;96334.75;4995685;28;20029;-77
2021/11/06 07:50:28;;;;;;;12.82;7.65;;;;;;;13.90;70.19;96346.38;5036151;28;20040;-79
2021/11/06 07:52:54;;;;;;;14.70;8.40;;;;;;;13.98;69.99;96344.69;5026779;28;20040;-75
2021/11/06 07:55:19;;;;;;;14.75;7.97;;;;;;;14.00;69.79;96340.78;5009403;28;20096;-76
2021/11/06 07:57:44;;;;;;;13.85;7.88;;;;;;;14.04;69.86;96342.09;5020835;28;20523;-76
2021/11/06 08:00:11;;;;;;;13.77;7.18;;;;;;;14.14;69.53;96346.47;5015348;28;20384;-78
2021/11/06 08:02:40;;;;;;;14.32;8.07;;;;;;;14.20;69.26;96335.78;5009911;28;20037;-80
2021/11/06 08:05:07;;;;;;;13.73;7.22;;;;;;;14.30;68.36;96342.81;5030106;28;20242;-75
2021/11/06 08:07:32;;;;;;;13.45;7.35;;;;;;;14.30;68.59;96350.91;5031892;28;20516;-76
2021/11/06 08:09:58;;;;;;;15.30;8.32;;;;;;;14.28;68.87;96355.66;5026554;28;20100;-77
2021/11/06 08:12:23;;;;;;;13.55;7.85;;;;;;;14.28;68.35;96358.34;5029814;28;20463;-76
2021/11/06 08:14:49;;;;;;;11.75;7.72;;;;;;;14.23;67.89;96352.63;5045725;28;20604;-77
2021/11/06 08:17:14;;;;;;;11.90;7.32;;;;;;;14.25;68.19;96353.31;5048701;28;20017;-80
2021/11/06 08:19:43;;;;;;;17.38;7.82;;;;;;;14.22;68.13;96351.78;5019811;28;20037;-76
2021/11/06 08:22:10;;;;;;;10.68;6.97;;;;;;;14.25;67.98;96353.31;5044592;28;20407;-75
2021/11/06 08:24:35;;;;;;;12.57;7.28;;;;;;;14.29;67.92;96349.22;5047706;28;20029;-79
2021/11/06 08:27:01;;;;;;;15.95;7.93;;;;;;;14.26;68.19;96349.56;5047406;28;20041;-78
2021/11/06 08:29:26;;;;;;;16.35;7.63;;;;;;;14.26;68.21;96352.28;5033350;28;20032;-80
2021/11/06 08:31:58;;;;;;;14.25;7.47;;;;;;;14.31;68.10;96357.97;5034688;28;20033;-76
2021/11/06 08:34:23;;;;;;;14.02;7.90;;;;;;;14.35;68.19;96370.09;5039230;28;20029;-78
2021/11/06 08:36:49;;;;;;;13.95;7.20;;;;;;;14.44;67.48;96368.19;5017936;28;20079;-76
2021/11/06 08:39:17;;;;;;;9.73;6.43;;;;;;;14.45;67.52;96359.91;5032502;28;20087;-78
2021/11/06 08:41:43;;;;;;;10.30;6.32;;;;;;;14.54;67.33;96365.28;5030392;28;20041;-78
2021/11/06 08:44:08;;;;;;;11.00;7.32;;;;;;;14.61;66.76;96368.91;5027296;28;20025;-77
2021/11/06 08:46:34;;;;;;;15.05;7.63;;;;;;;14.70;66.29;96365.13;5026459;28;20044;-76
2021/11/06 08:48:59;;;;;;;10.90;7.07;;;;;;;14.79;66.36;96360.56;5026169;28;20022;-75
2021/11/06 08:51:25;;;;;;;12.80;6.70;;;;;;;14.90;66.12;96356.56;5026041;28;20033;-79
2021/11/06 08:53:50;;;;;;;10.43;6.45;;;;;;;15.00;65.00;96359.03;5025845;28;20029;-76
2021/11/06 08:56:16;;;;;;;12.57;7.50;;;;;;;15.09;64.57;96359.78;5010041;28;20492;-76
2021/11/06 08:58:41;;;;;;;18.48;8.57;;;;;;;15.18;64.54;96347.91;5025344;28;20400;-76
2021/11/06 09:01:07;;;;;;;12.73;7.55;;;;;;;15.28;64.76;96352.19;5027623;28;20040;-76
2021/11/06 09:03:33;;;;;;;14.32;6.93;;;;;;;15.38;64.19;96355.47;5026525;28;20029;-75
2021/11/06 09:05:58;;;;;;;13.45;8.45;;;;;;;15.49;63.78;96356.03;5009775;28;20590;-75
2021/11/06 09:08:32;;;;;;;15.43;9.35;;;;;;;15.60;63.56;96357.44;5026910;28;20025;-77
2021/11/06 09:11:02;;;;;;;13.35;7.53;;;;;;;15.67;63.03;96364.59;5026291;28;20464;-76
2021/11/06 09:13:27;;;;;;;14.20;8.13;;;;;;;15.77;62.96;96371.59;5034271;28;20246;-76
2021/11/06 09:15:53;;;;;;;12.43;7.50;;;;;;;15.80;62.90;96384.75;5034244;28;20013;-75
2021/11/06 09:18:18;;;;;;;13.23;7.53;;;;;;;15.84;62.84;96388.78;5043850;28;20040;-76
2021/11/06 09:20:44;;;;;;;13.57;6.97;;;;;;;15.89;61.94;96370.13;5034110;28;20487;-76
2021/11/06 09:23:09;;;;;;;12.20;7.57;;;;;;;15.88;62.10;96379.25;5038489;28;20124;-75
2021/11/06 09:25:35;;;;;;;11.15;7.30;;;;;;;15.88;62.17;96371.13;5037083;28;20033;-76
2021/11/06 09:28:00;;;;;;;13.57;7.47;;;;;;;15.89;62.29;96369.28;5034949;28;20068;-75
2021/11/06 09:30:26;;;;;;;17.60;8.25;;;;;;;15.93;62.07;96366.00;5030465;28;20032;-75
2021/11/06 09:32:51;;;;;;;12.23;7.10;;;;;;;15.99;62.01;96364.44;5035774;28;20032;-74
2021/11/06 09:35:18;;;;;;;17.38;7.80;;;;;;;15.97;62.09;96355.66;5043117;28;20029;-75
2021/11/06 09:37:44;;;;;;;13.07;7.75;;;;;;;15.94;61.98;96362.25;5021891;28;20100;-77
2021/11/06 09:40:10;;;;;;;13.77;8.65;;;;;;;15.97;61.89;96355.66;5041388;28;20045;-75
2021/11/06 09:42:39;;;;;;;10.15;7.30;;;;;;;15.96;62.38;96348.53;5044395;28;20021;-77
2021/11/06 09:45:09;;;;;;;13.25;7.20;;;;;;;16.02;61.55;96349.72;5036596;28;20025;-75
2021/11/06 09:47:37;;;;;;;11.65;7.50;;;;;;;16.02;61.62;96352.41;5038003;28;20112;-76
2021/11/06 09:50:04;;;;;;;14.27;7.97;;;;;;;15.99;61.56;96347.38;5005013;28;20483;-75
2021/11/06 09:52:30;;;;;;;14.18;7.63;;;;;;;16.05;61.98;96341.22;5023677;28;20032;-77
2021/11/06 09:54:55;;;;;;;14.00;7.30;;;;;;;16.07;61.57;96339.16;5030371;28;20035;-77
2021/11/06 09:57:21;;;;;;;14.95;8.13;;;;;;;16.05;61.62;96338.50;5042771;28;20522;-77
2021/11/06 09:59:47;;;;;;;16.70;8.75;;;;;;;16.06;61.83;96334.75;5034494;28;20029;-78
2021/11/06 10:02:15;;;;;;;18.85;8.52;;;;;;;16.11;61.86;96334.19;5040308;28;20493;-75
2021/11/06 10:04:41;;;;;;;15.65;7.95;;;;;;;16.13;61.66;96338.41;5024953;28;20020;-77
2021/11/06 10:07:18;;;;;;;11.98;7.78;;;;;;;16.16;61.70;96329.03;5022857;28;20067;-75
2021/11/06 10:10:16;;;;;;;14.35;7.35;;;;;;;16.18;61.31;96327.00;5038043;28;20108;-76
2021/11/06 10:12:50;;;;;;;12.88;7.32;;;;;;;16.18;61.45;96329.72;5033624;28;20049;-77
2021/11/06 10:15:16;;;;;;;14.18;7.35;;;;;;;16.24;61.42;96328.94;5037880;28;20029;-75
2021/11/06 10:17:42;;;;;;;14.70;7.43;;;;;;;16.27;61.15;96322.28;5037228;28;20025;-77
2021/11/06 10:20:31;;;;;;;14.60;7.43;;;;;;;16.26;61.24;96334.16;5039699;28;20124;-75
2021/11/06 10:22:59;;;;;;;16.42;9.75;;;;;;;16.24;61.15;96345.19;5044641;28;20068;-76
2021/11/06 10:25:25;;;;;;;14.57;7.50;;;;;;;16.28;61.12;96332.13;5025947;28;20071;-76
2021/11/06 10:27:55;;;;;;;12.65;7.53;;;;;;;16.33;60.78;96326.13;5043571;28;20072;-76
2021/11/06 10:30:24;;;;;;;13.88;7.50;;;;;;;16.34;60.92;96317.81;5026649;28;20021;-74
2021/11/06 10:33:12;;;;;;;15.35;6.78;;;;;;;16.40;60.69;96316.19;5016327;28;20033;-78
2021/11/06 10:35:40;;;;;;;12.65;6.78;;;;;;;16.39;60.87;96315.38;5036317;28;20025;-74
2021/11/06 10:38:14;;;;;;;13.60;7.63;;;;;;;16.47;60.51;96327.09;5048311;28;20021;-75
2021/11/06 10:40:55;;;;;;;11.43;6.75;;;;;;;16.44;60.49;96318.31;5049530;28;20554;-76
2021/11/06 10:43:22;;;;;;;18.92;6.75;;;;;;;16.46;60.17;96320.00;5045794;28;20029;-76
2021/11/06 10:45:58;;;;;;;12.93;6.70;;;;;;;16.44;60.08;96322.91;5042111;28;20137;-75
2021/11/06 10:48:33;;;;;;;15.23;7.00;;;;;;;16.45;59.90;96319.16;5048780;28;20493;-77
2021/11/06 10:50:59;;;;;;;11.35;6.40;;;;;;;16.42;60.25;96325.81;5047686;28;20096;-77
2021/11/06 10:53:30;;;;;;;12.13;6.65;;;;;;;16.41;60.09;96318.69;5049166;28;20025;-76
2021/11/06 10:55:56;;;;;;;11.30;6.57;;;;;;;16.43;59.69;96313.94;5043138;28;20037;-77
2021/11/06 10:58:26;;;;;;;10.98;6.97;;;;;;;16.42;60.13;96319.56;5049107;28;20044;-77
2021/11/06 11:00:58;;;;;;;12.60;6.95;;;;;;;16.49;59.73;96320.44;5048097;28;20057;-76
2021/11/06 11:03:30;;;;;;;14.68;7.30;;;;;;;16.53;59.79;96323.59;5046639;28;20063;-75
2021/11/06 11:05:57;;;;;;;17.23;8.50;;;;;;;16.53;59.73;96320.91;5048005;28;20472;-77
2021/11/06 11:08:22;;;;;;;15.20;7.03;;;;;;;16.64;59.69;96316.84;5045839;28;20025;-77
2021/11/06 11:10:48;;;;;;;12.60;7.30;;;;;;;16.73;59.28;96314.84;5046397;28;20032;-77
2021/11/06 11:13:13;;;;;;;12.88;6.53;;;;;;;16.78;58.82;96304.28;5046628;28;20029;-77
2021/11/06 11:15:39;;;;;;;15.00;7.25;;;;;;;16.85;58.60;96313.28;5047704;28;20013;-76
2021/11/06 11:18:05;;;;;;;9.60;6.75;;;;;;;16.93;58.56;96306.88;5020582;28;20427;-77